createdAt,value
2023-04-12T00:00:14.510Z,9.38
2023-04-12T00:02:42.121Z,9.07
2023-04-12T00:05:11.945Z,15.10
2023-04-12T00:07:39.196Z,17.13
2023-04-12T00:10:10.657Z,13.82
2023-04-12T00:12:37.238Z,10.07
2023-04-12T00:15:05.173Z,10.90
2023-04-12T00:17:33.352Z,8.80
2023-04-12T00:19:59.961Z,11.82
2023-04-12T00:22:26.654Z,11.80
2023-04-12T00:24:53.239Z,8.60
2023-04-12T00:27:19.935Z,11.68
2023-04-12T00:29:46.482Z,12.02
2023-04-12T00:32:13.052Z,6.38
2023-04-12T00:34:39.803Z,11.93
2023-04-12T00:37:06.373Z,13.27
2023-04-12T00:39:32.910Z,8.40
2023-04-12T00:42:04.169Z,9.55
2023-04-12T00:44:32.838Z,10.80
2023-04-12T00:47:00.323Z,10.10
2023-04-12T00:49:30.722Z,9.15
2023-04-12T00:52:14.781Z,7.97
2023-04-12T00:54:42.240Z,10.05
2023-04-12T00:57:10.847Z,10.15
2023-04-12T00:59:37.382Z,10.88
2023-04-12T01:02:04.105Z,8.50
2023-04-12T01:04:30.929Z,10.13
2023-04-12T01:07:34.156Z,10.77
2023-04-12T01:10:00.771Z,6.13
2023-04-12T01:12:44.553Z,10.25
2023-04-12T01:15:15.834Z,9.80
2023-04-12T01:17:59.566Z,10.57
2023-04-12T01:20:33.877Z,6.55
2023-04-12T01:23:06.403Z,6.97
2023-04-12T01:25:45.888Z,8.40
2023-04-12T01:30:43.227Z,8.70
2023-04-12T01:33:12.314Z,10.90
2023-04-12T01:35:40.076Z,6.65
2023-04-12T01:38:08.344Z,7.35
2023-04-12T01:40:40.439Z,9.27
2023-04-12T01:43:12.041Z,7.65
2023-04-12T01:45:39.135Z,12.52
2023-04-12T01:48:10.890Z,12.32
2023-04-12T01:51:06.453Z,8.70
2023-04-12T01:53:38.593Z,8.77
2023-04-12T01:56:09.263Z,7.40
2023-04-12T01:58:39.073Z,9.75
2023-04-12T02:01:07.345Z,10.10
2023-04-12T02:03:37.534Z,8.57
2023-04-12T02:06:05.785Z,10.25
2023-04-12T02:08:33.332Z,8.88
2023-04-12T02:10:59.940Z,8.68
2023-04-12T02:13:26.692Z,8.07
2023-04-12T02:15:54.776Z,9.40
2023-04-12T02:18:21.699Z,13.10
2023-04-12T02:20:49.940Z,10.88
2023-04-12T02:23:16.498Z,5.57
2023-04-12T02:25:46.446Z,9.10
2023-04-12T02:28:15.053Z,8.93
2023-04-12T02:30:41.745Z,8.82
2023-04-12T02:33:09.797Z,12.60
2023-04-12T02:35:37.375Z,13.23
2023-04-12T02:38:08.639Z,9.75
2023-04-12T02:40:40.674Z,8.73
2023-04-12T02:43:09.243Z,12.77
2023-04-12T02:45:41.009Z,11.00
2023-04-12T02:48:09.450Z,10.00
2023-04-12T02:50:37.411Z,3.70
2023-04-12T02:53:16.897Z,9.55
2023-04-12T02:55:57.200Z,9.48
2023-04-12T02:58:27.335Z,8.57
2023-04-12T03:00:53.914Z,11.45
2023-04-12T03:03:28.476Z,7.10
2023-04-12T03:05:58.731Z,9.13
2023-04-12T03:08:26.079Z,9.27
2023-04-12T03:10:56.880Z,10.68
2023-04-12T03:13:25.771Z,10.75
2023-04-12T03:15:59.459Z,7.47
2023-04-12T03:18:32.844Z,9.90
2023-04-12T03:20:59.861Z,8.48
2023-04-12T03:23:26.786Z,15.32
2023-04-12T03:26:03.790Z,9.27
2023-04-12T03:28:32.620Z,9.27
2023-04-12T03:31:01.038Z,6.22
2023-04-12T03:33:37.972Z,9.45
2023-04-12T03:36:06.233Z,9.30
2023-04-12T03:38:32.958Z,11.18
2023-04-12T03:40:59.936Z,10.38
2023-04-12T03:43:37.324Z,19.70
2023-04-12T03:46:15.799Z,12.98
2023-04-12T03:48:44.014Z,9.10
2023-04-12T03:51:12.264Z,11.20
2023-04-12T03:53:43.341Z,18.52
2023-04-12T03:56:14.212Z,18.13
2023-04-12T03:58:43.008Z,15.23
2023-04-12T04:01:10.507Z,12.00
2023-04-12T04:03:37.573Z,7.63
2023-04-12T04:06:17.364Z,10.97
2023-04-12T04:08:45.016Z,10.90
2023-04-12T04:11:13.037Z,10.13
2023-04-12T04:13:43.479Z,9.15
2023-04-12T04:16:17.943Z,8.60
2023-04-12T04:18:44.769Z,9.32
2023-04-12T04:21:16.737Z,7.50
2023-04-12T04:26:16.855Z,9.20
2023-04-12T04:28:50.280Z,11.93
2023-04-12T04:31:22.293Z,9.73
2023-04-12T04:33:50.825Z,9.15
2023-04-12T04:36:19.761Z,8.15
2023-04-12T04:38:52.104Z,7.07
2023-04-12T04:41:42.099Z,10.25
2023-04-12T04:44:19.389Z,8.35
2023-04-12T04:46:54.029Z,12.43
2023-04-12T04:49:21.058Z,7.20
2023-04-12T04:51:47.982Z,14.10
2023-04-12T04:54:16.615Z,11.60
2023-04-12T04:56:44.021Z,8.13
2023-04-12T04:59:13.116Z,12.93
2023-04-12T05:01:41.382Z,9.82
2023-04-12T05:04:08.676Z,12.73
2023-04-12T05:06:35.566Z,17.42
2023-04-12T05:09:04.034Z,14.63
2023-04-12T05:11:33.360Z,11.85
2023-04-12T05:14:14.059Z,9.48
2023-04-12T05:16:40.755Z,11.70
2023-04-12T05:19:07.400Z,14.85
2023-04-12T05:21:34.642Z,7.30
2023-04-12T05:24:01.498Z,6.72
2023-04-12T05:26:29.626Z,12.18
2023-04-12T05:28:58.301Z,7.63
2023-04-12T05:31:25.211Z,8.75
2023-04-12T05:33:53.754Z,7.75
2023-04-12T05:36:24.043Z,7.47
2023-04-12T05:38:52.272Z,9.43
2023-04-12T05:41:18.869Z,7.82
2023-04-12T05:43:47.241Z,6.07
2023-04-12T05:46:14.447Z,6.88
2023-04-12T05:48:43.078Z,6.60
2023-04-12T05:51:09.664Z,4.53
2023-04-12T05:53:36.302Z,3.20
2023-04-12T05:56:05.763Z,4.47
2023-04-12T05:58:33.536Z,7.85
2023-04-12T06:01:00.212Z,3.85
2023-04-12T06:03:30.266Z,7.43
2023-04-12T06:06:02.571Z,5.30
2023-04-12T06:08:30.178Z,8.23
2023-04-12T06:10:56.923Z,4.93
2023-04-12T06:13:23.609Z,3.50
2023-04-12T06:15:50.281Z,5.25
2023-04-12T06:18:17.732Z,4.10
2023-04-12T06:20:45.398Z,5.32
2023-04-12T06:23:12.852Z,4.97
2023-04-12T06:25:40.313Z,4.70
2023-04-12T06:28:09.343Z,4.97
2023-04-12T06:30:47.771Z,4.78
2023-04-12T06:33:14.479Z,4.38
2023-04-12T06:35:41.735Z,3.13
2023-04-12T06:38:08.425Z,5.50
2023-04-12T06:40:35.139Z,6.30
2023-04-12T06:43:01.927Z,6.93
2023-04-12T06:45:28.502Z,6.93
2023-04-12T06:47:56.932Z,5.55
2023-04-12T06:50:23.802Z,4.78
2023-04-12T06:52:50.513Z,3.92
2023-04-12T06:55:17.439Z,6.43
2023-04-12T06:57:47.779Z,9.35
2023-04-12T07:00:14.677Z,3.15
2023-04-12T07:02:41.513Z,9.13
2023-04-12T07:05:09.734Z,3.75
2023-04-12T07:07:36.575Z,8.05
2023-04-12T07:10:05.011Z,8.77
2023-04-12T07:12:32.001Z,7.72
2023-04-12T07:14:58.621Z,5.10
2023-04-12T07:17:27.095Z,14.27
2023-04-12T07:19:54.557Z,6.68
2023-04-12T07:22:21.336Z,8.05
2023-04-12T07:24:49.465Z,11.90
2023-04-12T07:27:16.560Z,13.93
2023-04-12T07:29:43.159Z,3.58
2023-04-12T07:32:10.812Z,4.07
2023-04-12T07:34:39.369Z,12.80
2023-04-12T07:37:06.260Z,5.68
2023-04-12T07:39:34.866Z,5.88
2023-04-12T07:42:01.701Z,6.07
2023-04-12T07:44:28.318Z,5.00
2023-04-12T07:46:55.181Z,5.03
2023-04-12T07:49:21.826Z,5.18
2023-04-12T07:51:50.991Z,3.13
2023-04-12T07:54:17.661Z,4.47
2023-04-12T07:57:03.805Z,4.88
2023-04-12T07:59:31.784Z,5.25
2023-04-12T08:01:58.536Z,3.25
2023-04-12T08:04:25.192Z,6.05
2023-04-12T08:06:55.604Z,4.85
2023-04-12T08:09:22.158Z,3.30
2023-04-12T08:11:48.737Z,7.20
2023-04-12T08:14:15.328Z,2.35
2023-04-12T08:16:41.983Z,5.38
2023-04-12T08:19:08.721Z,3.28
2023-04-12T08:21:35.626Z,6.90
2023-04-12T08:24:02.559Z,3.42
2023-04-12T08:26:29.932Z,3.53
2023-04-12T08:28:57.692Z,4.95
2023-04-12T08:31:24.433Z,3.65
2023-04-12T08:33:51.221Z,3.53
2023-04-12T08:36:17.905Z,6.15
2023-04-12T08:38:46.388Z,2.40
2023-04-12T08:41:14.430Z,2.50
2023-04-12T08:43:45.643Z,2.47
2023-04-12T08:46:15.580Z,2.88
2023-04-12T08:48:46.271Z,2.28
2023-04-12T08:51:21.021Z,4.75
2023-04-12T08:53:48.245Z,1.60
2023-04-12T08:56:16.358Z,3.95
2023-04-12T08:58:48.948Z,5.40
2023-04-12T09:01:16.973Z,2.30
2023-04-12T09:03:44.665Z,3.80
2023-04-12T09:06:12.444Z,3.42
2023-04-12T09:08:56.195Z,4.28
2023-04-12T09:11:28.177Z,5.00
2023-04-12T09:13:56.064Z,4.60
2023-04-12T09:16:35.401Z,1.60
2023-04-12T09:19:04.830Z,3.95
2023-04-12T09:21:34.494Z,3.65
2023-04-12T09:26:33.271Z,2.85
2023-04-12T09:28:59.835Z,2.58
2023-04-12T09:31:26.693Z,5.13
2023-04-12T09:34:07.486Z,2.67
2023-04-12T09:36:38.843Z,3.33
2023-04-12T09:39:06.027Z,2.17
2023-04-12T09:41:32.918Z,4.68
2023-04-12T09:44:00.367Z,1.98
2023-04-12T09:46:27.781Z,2.05
2023-04-12T09:48:56.399Z,2.38
2023-04-12T09:51:33.912Z,1.67
2023-04-12T09:54:05.584Z,2.00
2023-04-12T09:56:34.206Z,2.63
2023-04-12T09:59:06.056Z,1.33
2023-04-12T10:01:36.960Z,1.25
2023-04-12T10:04:06.381Z,1.35
2023-04-12T10:09:04.322Z,1.17
2023-04-12T10:11:32.053Z,1.23
2023-04-12T10:13:59.014Z,2.17
2023-04-12T10:16:27.576Z,1.30
2023-04-12T10:18:55.301Z,1.73
2023-04-12T10:21:23.122Z,1.67
2023-04-12T10:23:50.508Z,1.38
2023-04-12T10:26:17.842Z,1.67
2023-04-12T10:28:47.888Z,1.60
2023-04-12T10:31:41.900Z,1.63
2023-04-12T10:34:09.121Z,1.45
2023-04-12T10:36:55.609Z,2.80
2023-04-12T10:39:40.491Z,1.55
2023-04-12T10:42:25.414Z,2.72
2023-04-12T10:44:58.738Z,2.55
2023-04-12T10:47:52.996Z,1.20
2023-04-12T10:50:24.972Z,2.50
2023-04-12T10:53:13.344Z,8.02
2023-04-12T10:55:41.174Z,18.02
2023-04-12T10:58:07.850Z,16.83
2023-04-12T11:00:59.300Z,10.68
2023-04-12T11:03:28.407Z,14.95
2023-04-12T11:06:16.251Z,17.88
2023-04-12T11:09:42.686Z,3.13
2023-04-12T11:12:15.105Z,1.90
2023-04-12T11:14:46.082Z,3.58
2023-04-12T11:17:12.816Z,0.93
2023-04-12T11:19:42.119Z,1.75
2023-04-12T11:22:13.752Z,1.00
2023-04-12T11:24:42.757Z,0.77
2023-04-12T11:27:10.031Z,0.98
2023-04-12T11:29:36.744Z,1.02
2023-04-12T11:32:04.791Z,2.90
2023-04-12T11:34:35.451Z,0.80
2023-04-12T11:37:06.533Z,3.78
2023-04-12T11:39:33.446Z,2.92
2023-04-12T11:42:01.978Z,1.92
2023-04-12T11:44:33.591Z,0.88
2023-04-12T11:47:04.753Z,0.88
2023-04-12T11:49:31.549Z,0.50
2023-04-12T11:52:03.249Z,0.82
2023-04-12T11:54:30.660Z,1.38
2023-04-12T11:56:58.647Z,1.13
2023-04-12T11:59:32.944Z,0.50
2023-04-12T12:02:10.824Z,0.98
2023-04-12T12:04:49.399Z,0.75
2023-04-12T12:07:17.935Z,1.13
2023-04-12T12:09:46.596Z,0.60
2023-04-12T12:12:14.225Z,2.70
2023-04-12T12:14:43.379Z,1.52
2023-04-12T12:17:15.451Z,1.13
2023-04-12T12:19:46.366Z,1.10
2023-04-12T12:22:17.524Z,0.80
2023-04-12T12:25:07.124Z,2.58
2023-04-12T12:27:40.784Z,0.57
2023-04-12T12:30:09.497Z,1.38
2023-04-12T12:32:38.902Z,0.70
2023-04-12T12:35:10.750Z,2.25
2023-04-12T12:37:37.408Z,1.08
2023-04-12T12:40:16.525Z,0.85
2023-04-12T12:42:46.339Z,2.22
2023-04-12T12:45:15.296Z,1.02
2023-04-12T12:47:47.143Z,1.00
2023-04-12T12:50:14.307Z,2.33
2023-04-12T12:52:40.943Z,1.67
2023-04-12T12:55:09.045Z,2.60
2023-04-12T12:57:36.432Z,3.13
2023-04-12T13:00:04.727Z,4.18
2023-04-12T13:02:31.509Z,3.42
2023-04-12T13:04:58.595Z,2.78
2023-04-12T13:07:25.426Z,3.10
2023-04-12T13:09:52.227Z,3.33
2023-04-12T13:12:18.912Z,3.53
2023-04-12T13:14:45.504Z,4.03
2023-04-12T13:17:12.059Z,4.55
2023-04-12T13:19:38.708Z,4.28
2023-04-12T13:22:07.214Z,3.80
2023-04-12T13:24:35.263Z,5.18
2023-04-12T13:27:02.705Z,4.50
2023-04-12T13:29:29.269Z,3.90
2023-04-12T13:31:56.001Z,3.88
2023-04-12T13:34:22.553Z,4.93
2023-04-12T13:36:49.455Z,7.88
2023-04-12T13:39:16.017Z,3.83
2023-04-12T13:41:42.708Z,4.20
2023-04-12T13:44:09.446Z,3.60
2023-04-12T13:46:36.348Z,3.50
2023-04-12T13:49:02.988Z,3.88
2023-04-12T13:51:29.576Z,4.07
2023-04-12T13:53:56.269Z,3.40
2023-04-12T13:56:22.796Z,4.55
2023-04-12T13:58:49.339Z,3.53
2023-04-12T14:01:16.262Z,3.63
2023-04-12T14:03:44.441Z,2.85
2023-04-12T14:06:11.466Z,4.80
2023-04-12T14:08:38.051Z,2.63
2023-04-12T14:11:04.848Z,2.83
2023-04-12T14:13:31.422Z,4.45
2023-04-12T14:15:58.024Z,2.80
2023-04-12T14:18:24.719Z,3.08
2023-04-12T14:20:54.917Z,2.63
2023-04-12T14:25:51.188Z,2.30
2023-04-12T14:28:30.750Z,1.63
2023-04-12T14:30:58.095Z,2.35
2023-04-12T14:33:25.208Z,1.48
2023-04-12T14:35:53.606Z,2.05
2023-04-12T14:38:20.564Z,1.23
2023-04-12T14:40:47.212Z,0.50
2023-04-12T14:43:13.785Z,1.40
2023-04-12T14:45:40.514Z,2.05
2023-04-12T14:48:07.190Z,0.70
2023-04-12T14:50:33.798Z,0.75
2023-04-12T14:53:00.487Z,0.75
2023-04-12T14:55:28.362Z,2.45
2023-04-12T14:57:54.982Z,1.60
2023-04-12T15:00:21.775Z,0.85
2023-04-12T15:02:49.833Z,1.17
2023-04-12T15:05:16.751Z,2.10
2023-04-12T15:07:43.570Z,3.47
2023-04-12T15:10:10.796Z,2.92
2023-04-12T15:12:37.388Z,2.63
2023-04-12T15:15:06.255Z,6.47
2023-04-12T15:17:34.200Z,1.77
2023-04-12T15:20:09.322Z,3.47
2023-04-12T15:22:37.010Z,3.58
2023-04-12T15:25:04.227Z,1.95
2023-04-12T15:27:31.974Z,4.60
2023-04-12T15:29:59.669Z,3.20
2023-04-12T15:32:29.678Z,2.53
2023-04-12T15:34:56.486Z,4.10
2023-04-12T15:37:23.474Z,2.30
2023-04-12T15:39:50.122Z,4.15
2023-04-12T15:42:17.118Z,4.40
2023-04-12T15:44:45.165Z,4.25
2023-04-12T15:47:12.516Z,3.10
2023-04-12T15:49:41.855Z,3.88
2023-04-12T15:52:08.464Z,3.30
2023-04-12T15:54:35.118Z,7.05
2023-04-12T15:57:09.430Z,4.60
2023-04-12T15:59:38.011Z,6.70
2023-04-12T16:02:06.758Z,5.70
2023-04-12T16:04:33.543Z,4.72
2023-04-12T16:07:02.412Z,9.43
2023-04-12T16:09:29.540Z,9.50
2023-04-12T16:11:57.246Z,6.55
2023-04-12T16:14:23.862Z,15.82
2023-04-12T16:16:50.453Z,10.35
2023-04-12T16:19:17.075Z,11.52
2023-04-12T16:21:44.585Z,9.35
2023-04-12T16:24:11.350Z,6.10
2023-04-12T16:26:39.075Z,9.27
2023-04-12T16:29:05.577Z,7.45
2023-04-12T16:31:32.274Z,4.75
2023-04-12T16:33:58.909Z,4.65
2023-04-12T16:36:27.153Z,8.25
2023-04-12T16:38:59.373Z,5.47
2023-04-12T16:41:26.466Z,7.15
2023-04-12T16:43:54.971Z,8.52
2023-04-12T16:46:21.625Z,7.03
2023-04-12T16:48:48.278Z,9.50
2023-04-12T16:51:14.899Z,7.97
2023-04-12T16:53:41.508Z,8.13
2023-04-12T16:56:08.393Z,5.28
2023-04-12T16:58:34.990Z,8.52
2023-04-12T17:01:01.903Z,6.90
2023-04-12T17:03:28.835Z,11.90
2023-04-12T17:05:55.486Z,8.10
2023-04-12T17:08:22.613Z,9.88
2023-04-12T17:10:49.230Z,11.07
2023-04-12T17:13:18.592Z,9.95
2023-04-12T17:15:48.017Z,5.90
2023-04-12T17:18:15.414Z,8.77
2023-04-12T17:20:42.554Z,8.70
2023-04-12T17:23:10.078Z,10.00
2023-04-12T17:25:37.327Z,8.50
2023-04-12T17:28:04.000Z,10.07
2023-04-12T17:30:30.902Z,10.05
2023-04-12T17:32:59.389Z,12.27
2023-04-12T17:35:26.087Z,12.93
2023-04-12T17:37:52.631Z,10.60
2023-04-12T17:40:19.208Z,14.38
2023-04-12T17:42:45.795Z,15.10
2023-04-12T17:45:14.469Z,8.45
2023-04-12T17:47:42.214Z,14.40
2023-04-12T17:50:15.112Z,14.30
2023-04-12T17:52:42.426Z,17.67
2023-04-12T17:55:13.317Z,11.43
2023-04-12T17:57:47.470Z,10.25
2023-04-12T18:00:18.887Z,12.75
2023-04-12T18:02:50.089Z,13.57
2023-04-12T18:05:16.945Z,9.27
2023-04-12T18:07:43.516Z,11.77
2023-04-12T18:10:12.421Z,9.93
2023-04-12T18:12:39.127Z,15.32
2023-04-12T18:15:08.192Z,11.13
2023-04-12T18:17:34.866Z,8.15
2023-04-12T18:20:02.845Z,10.27
2023-04-12T18:22:29.770Z,8.02
2023-04-12T18:24:56.539Z,12.02
2023-04-12T18:27:23.049Z,11.90
2023-04-12T18:29:49.627Z,9.90
2023-04-12T18:32:16.466Z,10.63
2023-04-12T18:34:43.049Z,12.45
2023-04-12T18:37:09.772Z,12.15
2023-04-12T18:39:36.574Z,7.85
2023-04-12T18:42:03.297Z,8.00
2023-04-12T18:44:30.521Z,8.48
2023-04-12T18:46:57.088Z,9.27
2023-04-12T18:49:24.187Z,7.82
2023-04-12T18:51:53.136Z,8.68
2023-04-12T18:54:20.983Z,13.93
2023-04-12T18:56:47.522Z,15.02
2023-04-12T18:59:17.817Z,12.82
2023-04-12T19:01:45.343Z,10.48
2023-04-12T19:04:12.325Z,14.85
2023-04-12T19:06:39.012Z,11.80
2023-04-12T19:09:05.855Z,9.77
2023-04-12T19:11:34.694Z,10.45
2023-04-12T19:14:03.124Z,10.25
2023-04-12T19:16:29.834Z,11.00
2023-04-12T19:19:00.146Z,12.95
2023-04-12T19:21:28.945Z,17.92
2023-04-12T19:23:56.186Z,11.27
2023-04-12T19:26:23.299Z,10.73
2023-04-12T19:28:55.361Z,9.07
2023-04-12T19:31:23.606Z,12.85
2023-04-12T19:33:54.375Z,15.73
2023-04-12T19:36:21.037Z,13.68
2023-04-12T19:38:48.544Z,12.45
2023-04-12T19:41:17.517Z,13.23
2023-04-12T19:43:44.038Z,8.10
2023-04-12T19:46:10.993Z,13.60
2023-04-12T19:48:37.757Z,15.52
2023-04-12T19:51:05.221Z,12.48
2023-04-12T19:53:33.146Z,10.88
2023-04-12T19:56:00.683Z,11.75
2023-04-12T19:58:27.254Z,16.67
2023-04-12T20:00:54.928Z,13.00
2023-04-12T20:03:21.933Z,10.82
2023-04-12T20:05:48.621Z,8.95
2023-04-12T20:08:15.870Z,8.52
2023-04-12T20:10:42.827Z,13.85
2023-04-12T20:13:14.939Z,8.88
2023-04-12T20:15:42.778Z,9.52
2023-04-12T20:18:11.293Z,10.73
2023-04-12T20:20:38.063Z,7.75
2023-04-12T20:23:04.668Z,10.90
2023-04-12T20:25:35.510Z,7.35
2023-04-12T20:28:02.856Z,7.80
2023-04-12T20:30:30.029Z,8.05
2023-04-12T20:32:59.495Z,6.35
2023-04-12T20:35:27.859Z,9.85
2023-04-12T20:37:54.935Z,6.45
2023-04-12T20:40:23.212Z,7.68
2023-04-12T20:42:50.007Z,8.35
2023-04-12T20:45:17.757Z,9.00
2023-04-12T20:47:44.537Z,7.05
2023-04-12T20:50:11.365Z,9.18
2023-04-12T20:52:38.167Z,8.38
2023-04-12T20:55:06.155Z,8.90
2023-04-12T20:57:33.079Z,8.77
2023-04-12T21:00:01.633Z,5.97
2023-04-12T21:02:28.569Z,6.45
2023-04-12T21:04:57.067Z,7.55
2023-04-12T21:07:26.095Z,10.15
2023-04-12T21:09:52.709Z,8.68
2023-04-12T21:12:19.568Z,8.50
2023-04-12T21:14:50.131Z,10.65
2023-04-12T21:17:20.733Z,5.57
2023-04-12T21:19:47.554Z,4.07
2023-04-12T21:22:14.157Z,5.63
2023-04-12T21:24:40.764Z,7.38
2023-04-12T21:27:08.448Z,6.47
2023-04-12T21:29:40.920Z,3.55
2023-04-12T21:32:08.588Z,5.50
2023-04-12T21:34:35.565Z,7.45
2023-04-12T21:37:02.708Z,8.05
2023-04-12T21:39:29.364Z,7.40
2023-04-12T21:41:59.092Z,10.15
2023-04-12T21:44:26.545Z,6.43
2023-04-12T21:46:53.126Z,7.13
2023-04-12T21:49:19.614Z,4.55
2023-04-12T21:51:46.991Z,6.50
2023-04-12T21:54:14.380Z,4.60
2023-04-12T21:56:40.921Z,4.55
2023-04-12T21:59:08.178Z,5.38
2023-04-12T22:01:34.905Z,4.82
2023-04-12T22:04:01.618Z,8.02
2023-04-12T22:06:28.184Z,9.20
2023-04-12T22:08:55.536Z,11.75
2023-04-12T22:11:22.114Z,9.10
2023-04-12T22:13:48.788Z,9.07
2023-04-12T22:16:15.750Z,8.55
2023-04-12T22:18:45.756Z,11.02
2023-04-12T22:21:13.057Z,12.32
2023-04-12T22:23:40.562Z,9.63
2023-04-12T22:26:12.166Z,10.48
2023-04-12T22:28:38.825Z,13.98
2023-04-12T22:31:06.352Z,9.48
2023-04-12T22:33:33.317Z,8.82
2023-04-12T22:36:02.021Z,10.55
2023-04-12T22:38:28.598Z,11.07
2023-04-12T22:41:01.882Z,12.88
2023-04-12T22:43:41.691Z,15.25
2023-04-12T22:46:18.095Z,15.85
2023-04-12T22:48:47.606Z,16.15
2023-04-12T22:51:14.878Z,13.43
2023-04-12T22:53:41.369Z,19.55
2023-04-12T22:56:14.075Z,14.65
2023-04-12T22:58:42.757Z,12.65
2023-04-12T23:01:10.777Z,13.17
2023-04-12T23:03:38.149Z,14.70
2023-04-12T23:06:07.979Z,17.17
2023-04-12T23:08:34.522Z,16.58
2023-04-12T23:11:04.682Z,15.50
2023-04-12T23:13:34.809Z,13.68
2023-04-12T23:16:07.356Z,16.00
2023-04-12T23:18:33.955Z,11.93
2023-04-12T23:21:01.645Z,14.30
2023-04-12T23:23:28.493Z,15.02
2023-04-12T23:25:55.441Z,13.52
2023-04-12T23:28:25.796Z,12.68
2023-04-12T23:30:52.361Z,11.82
2023-04-12T23:33:21.049Z,10.32
2023-04-12T23:35:49.502Z,13.97
2023-04-12T23:38:23.031Z,11.25
2023-04-12T23:40:56.497Z,12.02
2023-04-12T23:43:24.399Z,10.88
2023-04-12T23:45:54.754Z,23.40
2023-04-12T23:48:21.806Z,7.78
2023-04-12T23:50:49.009Z,8.18
2023-04-12T23:53:16.755Z,8.88
2023-04-12T23:55:46.972Z,10.70
2023-04-12T23:58:14.195Z,7.28
